• Join FlightAware (Why Join?)
  • Login
  • US Flag 
01:06AM EST


 

Airport Tracker/Info


-or-


 

Live Flight TrackerFlight Track Log ✈ PDT4186 ✈ 16-Sep-2013 ✈ KHXD - KCLT

Flight Track Log - Related Links

Times and Time Zones

All times are in EDT time to prevent confusion due to time zone crossing. See the PDT4186 flight status page for this flight to view local times or setup timezone preferences in your user account.

Time Position Orientation Groundspeed Altitude Reporting Facility
EDT Latitude Longitude Course Direction KTS MPH feet Rate Location/Type
05:14PM 32.5733 -80.7260 23° Northeast  Level Estimated
05:15PM 32.6314 -80.7307 23° Northeast  Level Estimated
05:16PM 32.6721 -80.6812 46° Northeast  Level FlightAware Approximate
05:16PM 32.4819 -80.4864 17° North 188 216 12,300  Level Jacksonville Center
05:17PM 32.7302 -80.6871 24° Northeast  Level Estimated
05:17PM 32.5256 -80.4731 14° North 164 189 13,700  Level Jacksonville Center
05:18PM 32.5817 -80.4667 North 173 199 14,000 120 Climbing Jacksonville Center
05:19PM 32.6403 -80.4675 359° North 192 221 14,000  Level Jacksonville Center
05:20PM 32.7025 -80.4486 14° North 212 244 14,000 300 Level Jacksonville Center
05:21PM 32.7686 -80.4122 25° Northeast 231 266 14,700 480 Climbing Jacksonville Center
05:22PM 32.8264 -80.3883 19° North 231 266 15,000 120 Climbing Jacksonville Center
05:23PM 32.8864 -80.3569 24° Northeast 223 257 15,000  Level Jacksonville Center
05:24PM 32.9439 -80.3158 31° Northeast 234 269 15,000  Level Jacksonville Center
05:25PM 33.0058 -80.2769 28° Northeast 241 277 15,000  Level Jacksonville Center
05:26PM 33.0703 -80.2675 North 238 274 15,000  Level Jacksonville Center
05:27PM 33.1389 -80.2531 10° North 244 281 15,000  Level Jacksonville Center
05:28PM 33.2033 -80.2389 10° North 238 274 15,000  Level Jacksonville Center
05:29PM 33.2653 -80.2022 26° Northeast 239 275 15,000  Level Jacksonville Center
05:30PM 33.3228 -80.1656 28° Northeast 231 266 15,000  Level Jacksonville Center
05:31PM 33.3911 -80.1361 20° North 245 282 15,000  Level Jacksonville Center
05:32PM 33.4575 -80.1217 10° North 245 282 15,000  Level Jacksonville Center
05:33PM 33.5244 -80.1344 351° North 239 275 15,000  Level Jacksonville Center
05:34PM 33.5917 -80.1450 353° North 234 269 15,000  Level Jacksonville Center
05:35PM 33.6586 -80.1528 354° North 239 275 15,000 -480 Level Jacksonville Center
05:36PM 33.7214 -80.1608 354° North 241 277 14,100 -960 Descending Jacksonville Center
05:37PM 33.7944 -80.1661 357° North 248 285 13,100 -1,020 Descending Jacksonville Center
05:38PM 33.8678 -80.1814 350° North 258 297 12,100 -1,020 Descending Jacksonville Center
05:39PM 33.9453 -80.1889 355° North 264 304 11,100 -1,020 Descending Jacksonville Center
05:40PM 34.0078 -80.1894 360° North 264 304 10,100 -1,020 Descending Jacksonville Center
05:41PM 34.0767 -80.1900 360° North 240 276 9,100 -1,080 Descending Jacksonville Center
05:42PM 34.1417 -80.2003 353° North 231 266 8,000 -600 Descending Jacksonville Center
05:43PM 34.2044 -80.2111 352° North 231 266 8,000  Level Jacksonville Center
05:44PM 34.2692 -80.2192 354° North 231 266 8,000  Level Jacksonville Center
05:45PM 34.3406 -80.2369 348° North 237 273 8,000  Level Jacksonville Center
05:46PM 34.4053 -80.2450 354° North 237 273 8,000  Level Jacksonville Center
05:47PM 34.4703 -80.2558 352° North 237 273 8,000  Level Jacksonville Center
05:48PM 34.5350 -80.2614 356° North 237 273 8,000  Level Jacksonville Center
05:49PM 34.6486 -80.2792 353° North 231 266 8,000  Level Atlanta Center
05:50PM 34.6964 -80.3350 316° Northwest 227 261 8,000  Level Atlanta Center
05:51PM 34.7356 -80.3889 311° West 222 255 8,000  Level Atlanta Center
05:52PM 34.7831 -80.4425 317° Northwest 223 257 8,000 -540 Level Atlanta Center
05:54PM 34.8350 -80.5136 312° West 244 281 6,900 -960 Descending Atlanta Center
05:55PM 34.8683 -80.5831 300° West 256 295 6,000 -480 Descending Atlanta Center
05:56PM 34.9036 -80.6525 302° West 238 274 6,000  Level Atlanta Center
05:57PM 34.9325 -80.7147 300° West 230 265 6,000 -420 Level Atlanta Center
05:58PM 34.9678 -80.7844 302° West 233 268 5,200 -840 Descending Atlanta Center
05:59PM 35.0031 -80.8564 301° West 247 284 4,300 -840 Descending Atlanta Center
06:00PM 35.0608 -80.9100 323° Northwest 218 251 3,500 -900 Descending Atlanta Center
06:01PM 35.1072 -80.9286 342° North 166 191 2,400 -900 Descending Atlanta Center
06:02PM 35.1489 -80.9322 356° North 158 182 1,800 -720 Descending Atlanta Center
06:03PM 35.1867 -80.9358 356° North 128 147 1,100 -720 Descending Atlanta Center
06:05PM 35.2000 -80.9333 90° East  Level FlightAware Approximate
06:12PM 35.2137 -80.9491 90° East  Level Estimated